Time;durP1;ratioP1;P1;durP2;ratioP2;P2;SDS_P1;SDS_P2;PMS_P1;PMS_P2;Temp;Humidity;BMP_temperature;BMP_pressure;BME280_temperature;BME280_humidity;BME280_pressure;Samples;Min_cycle;Max_cycle;Signal;HPM_P1;HPM_P2
2022/04/24 00:00:04;;;;;;;1.00;0.60;;;20.10;99.90;;;;;;5035352;28;20205;-77
2022/04/24 00:02:36;;;;;;;1.33;0.70;;;20.30;99.90;;;;;;5040940;28;20638;-76
2022/04/24 00:05:07;;;;;;;2.45;0.60;;;20.50;99.90;;;;;;5030753;28;20198;-77
2022/04/24 00:07:38;;;;;;;1.20;0.50;;;20.50;99.90;;;;;;5032955;28;20197;-77
2022/04/24 00:10:10;;;;;;;1.40;0.60;;;20.60;99.90;;;;;;5031335;28;20235;-77
2022/04/24 00:12:41;;;;;;;2.70;1.17;;;20.80;99.90;;;;;;5038379;28;20573;-77
2022/04/24 00:15:12;;;;;;;2.83;0.75;;;20.90;99.90;;;;;;5032693;28;20296;-77
2022/04/24 00:17:44;;;;;;;2.20;0.68;;;21.00;99.90;;;;;;5030331;28;20190;-77
2022/04/24 00:20:15;;;;;;;5.72;0.98;;;21.10;99.90;;;;;;5028868;28;20202;-77
2022/04/24 00:22:46;;;;;;;3.33;0.90;;;21.30;99.90;;;;;;5036814;28;20259;-75
2022/04/24 00:25:16;;;;;;;2.83;0.82;;;21.40;99.90;;;;;;5031129;28;20199;-77
2022/04/24 00:27:47;;;;;;;1.73;0.55;;;21.40;99.90;;;;;;5031063;28;20256;-76
2022/04/24 00:30:18;;;;;;;1.10;0.70;;;21.50;99.90;;;;;;5030011;28;20202;-76
2022/04/24 00:32:50;;;;;;;1.42;0.65;;;21.40;99.90;;;;;;5034612;28;20210;-77
2022/04/24 00:35:21;;;;;;;2.72;0.60;;;21.20;99.90;;;;;;5036711;28;20256;-77
2022/04/24 00:37:51;;;;;;;0.70;0.40;;;21.30;99.90;;;;;;5031800;28;20193;-77
2022/04/24 00:40:22;;;;;;;1.98;0.38;;;21.20;99.90;;;;;;5035383;28;20210;-74
2022/04/24 00:42:53;;;;;;;1.98;0.30;;;21.10;99.90;;;;;;5046199;28;20206;-74
2022/04/24 00:45:23;;;;;;;0.20;0.20;;;21.00;99.90;;;;;;5036938;28;20194;-74
2022/04/24 00:47:56;;;;;;;0.68;0.30;;;20.90;99.90;;;;;;5028762;28;20244;-75
2022/04/24 00:50:27;;;;;;;1.17;0.40;;;20.80;99.90;;;;;;5032989;28;20201;-74
2022/04/24 00:52:58;;;;;;;0.47;0.40;;;20.80;99.90;;;;;;5027750;28;20214;-75
2022/04/24 00:55:29;;;;;;;1.73;0.55;;;20.90;99.90;;;;;;5042194;28;20606;-75
2022/04/24 00:58:00;;;;;;;2.03;0.77;;;20.90;99.90;;;;;;5029918;28;20617;-75
2022/04/24 01:00:30;;;;;;;1.50;0.30;;;20.90;99.90;;;;;;5026664;28;20210;-74
2022/04/24 01:03:03;;;;;;;0.90;0.40;;;20.70;99.90;;;;;;5019642;28;20279;-75
2022/04/24 01:05:33;;;;;;;0.50;0.32;;;20.60;99.90;;;;;;5026573;28;20662;-75
2022/04/24 01:08:04;;;;;;;0.90;0.40;;;20.50;99.90;;;;;;5025938;28;20280;-75
2022/04/24 01:10:41;;;;;;;0.68;0.40;;;20.30;99.90;;;;;;5032270;28;20205;-75
2022/04/24 01:13:12;;;;;;;1.75;0.50;;;20.30;99.90;;;;;;5035583;28;20194;-75
2022/04/24 01:15:42;;;;;;;2.13;0.68;;;20.50;99.90;;;;;;5040307;28;20198;-75
2022/04/24 01:18:15;;;;;;;1.70;0.40;;;20.80;99.90;;;;;;5034365;28;20598;-76
2022/04/24 01:20:49;;;;;;;1.63;0.40;;;21.20;99.90;;;;;;5039657;28;20202;-75
2022/04/24 01:23:19;;;;;;;2.38;0.40;;;21.30;99.90;;;;;;5031491;28;20302;-75
2022/04/24 01:25:50;;;;;;;2.63;0.30;;;21.20;99.90;;;;;;5038775;28;20267;-74
2022/04/24 01:28:20;;;;;;;0.70;0.30;;;21.20;99.90;;;;;;5036948;28;20197;-74
2022/04/24 01:30:51;;;;;;;1.05;0.20;;;21.40;99.90;;;;;;5035012;28;20642;-74
2022/04/24 01:33:22;;;;;;;4.75;0.60;;;21.50;99.90;;;;;;5033272;28;20244;-74
2022/04/24 01:35:54;;;;;;;0.55;0.30;;;21.60;99.90;;;;;;5035478;28;20249;-76
2022/04/24 01:38:25;;;;;;;0.20;0.20;;;21.80;99.90;;;;;;5034959;28;20198;-75
2022/04/24 01:40:55;;;;;;;1.55;0.40;;;22.00;99.90;;;;;;5033763;28;20195;-75
2022/04/24 01:43:26;;;;;;;0.80;0.30;;;22.00;99.90;;;;;;5028505;28;20195;-75
2022/04/24 01:45:57;;;;;;;1.05;0.40;;;21.80;99.90;;;;;;5034194;28;20601;-75
2022/04/24 01:48:28;;;;;;;2.80;0.40;;;22.00;99.90;;;;;;5034583;28;20731;-74
2022/04/24 01:51:00;;;;;;;1.83;0.40;;;22.00;99.90;;;;;;5036895;28;20316;-73
2022/04/24 01:53:31;;;;;;;1.75;0.40;;;21.90;99.90;;;;;;5037301;28;20255;-73
2022/04/24 01:56:03;;;;;;;3.08;0.50;;;21.80;99.90;;;;;;5032344;28;20252;-73
2022/04/24 01:58:34;;;;;;;0.98;0.38;;;21.60;99.90;;;;;;5034272;28;20187;-73
2022/04/24 02:01:06;;;;;;;1.65;0.45;;;21.50;99.90;;;;;;5038756;28;20209;-73
2022/04/24 02:03:37;;;;;;;1.45;0.40;;;21.30;99.90;;;;;;5034464;28;20191;-72
2022/04/24 02:06:10;;;;;;;0.65;0.30;;;21.20;99.90;;;;;;5035473;28;20719;-72
2022/04/24 02:08:41;;;;;;;5.15;1.00;;;21.10;99.90;;;;;;5034237;28;20672;-72
2022/04/24 02:11:11;;;;;;;0.95;0.30;;;21.20;99.90;;;;;;5034722;28;20240;-72
2022/04/24 02:13:42;;;;;;;1.85;0.40;;;21.60;99.90;;;;;;5034293;28;20195;-73
2022/04/24 02:16:12;;;;;;;2.05;0.40;;;21.70;99.90;;;;;;5034335;28;20202;-73
2022/04/24 02:18:43;;;;;;;1.17;0.40;;;21.70;99.90;;;;;;5031795;28;20605;-74
2022/04/24 02:21:16;;;;;;;0.55;0.50;;;21.60;99.90;;;;;;5034417;28;20202;-73
2022/04/24 02:23:47;;;;;;;1.23;0.50;;;21.40;99.90;;;;;;5038602;28;20661;-73
2022/04/24 02:26:18;;;;;;;1.52;0.40;;;21.30;99.90;;;;;;5036437;28;20218;-73
2022/04/24 02:28:48;;;;;;;2.22;0.75;;;21.20;99.90;;;;;;5038382;28;20568;-72
2022/04/24 02:31:19;;;;;;;2.63;0.40;;;21.10;99.90;;;;;;5034084;28;20711;-74
2022/04/24 02:33:49;;;;;;;2.03;0.50;;;21.10;99.90;;;;;;5034352;28;20240;-73
2022/04/24 02:36:22;;;;;;;2.58;0.47;;;21.10;99.90;;;;;;5032839;28;20248;-73
2022/04/24 02:38:52;;;;;;;3.05;0.57;;;21.10;99.90;;;;;;5032936;28;20198;-73
2022/04/24 02:41:23;;;;;;;0.95;0.40;;;21.10;99.90;;;;;;5040976;28;20198;-73
2022/04/24 02:43:54;;;;;;;1.42;0.43;;;21.20;99.90;;;;;;5034143;28;20197;-74
2022/04/24 02:46:25;;;;;;;2.30;0.55;;;21.30;99.90;;;;;;5039656;28;20206;-73
2022/04/24 02:48:55;;;;;;;1.25;0.40;;;21.60;99.90;;;;;;5032703;28;20194;-75
2022/04/24 02:51:28;;;;;;;1.85;0.40;;;21.70;99.90;;;;;;5035357;28;20242;-74
2022/04/24 02:53:58;;;;;;;0.30;0.20;;;21.70;99.90;;;;;;5035218;28;20209;-72
2022/04/24 02:56:29;;;;;;;1.42;0.40;;;21.60;99.90;;;;;;5035721;28;20193;-73
2022/04/24 02:59:00;;;;;;;0.30;0.30;;;21.40;99.90;;;;;;5035155;28;20206;-74
2022/04/24 03:01:30;;;;;;;1.55;0.50;;;21.30;99.90;;;;;;5034036;28;20193;-73
2022/04/24 03:04:01;;;;;;;2.13;0.40;;;21.10;99.90;;;;;;5034638;28;20209;-74
2022/04/24 03:06:34;;;;;;;1.38;0.28;;;21.20;99.90;;;;;;5032382;28;20229;-72
2022/04/24 03:09:05;;;;;;;0.75;0.40;;;21.30;99.90;;;;;;5032292;28;20198;-74
2022/04/24 03:11:35;;;;;;;1.38;0.40;;;21.20;99.90;;;;;;5034312;28;20603;-72
2022/04/24 03:14:06;;;;;;;1.15;0.30;;;21.20;99.90;;;;;;5033434;28;20194;-73
2022/04/24 03:16:36;;;;;;;2.17;0.43;;;21.40;99.90;;;;;;5034399;28;20202;-73
2022/04/24 03:19:07;;;;;;;2.10;0.30;;;21.70;99.90;;;;;;5034636;28;20206;-73
2022/04/24 03:21:40;;;;;;;1.23;0.35;;;21.80;99.90;;;;;;5039662;28;20202;-74
2022/04/24 03:24:10;;;;;;;0.93;0.20;;;21.80;99.90;;;;;;5032258;28;20193;-73
2022/04/24 03:26:41;;;;;;;1.10;0.30;;;21.90;99.90;;;;;;5036684;28;20218;-72
2022/04/24 03:29:12;;;;;;;1.85;0.43;;;22.00;99.90;;;;;;5032512;28;20556;-72
2022/04/24 03:31:42;;;;;;;0.90;0.30;;;22.10;99.90;;;;;;5032016;28;20202;-73
2022/04/24 03:34:13;;;;;;;0.88;0.30;;;22.20;99.90;;;;;;5033057;28;20202;-75
2022/04/24 03:36:46;;;;;;;0.77;0.43;;;22.20;99.90;;;;;;5031114;28;20206;-74
2022/04/24 03:39:17;;;;;;;1.33;0.52;;;22.10;99.90;;;;;;5030352;28;20198;-73
2022/04/24 03:41:47;;;;;;;1.67;0.43;;;22.30;99.90;;;;;;5036127;28;20673;-72
2022/04/24 03:44:18;;;;;;;1.80;0.40;;;22.40;99.90;;;;;;5031929;28;20202;-74
2022/04/24 03:46:49;;;;;;;1.25;0.40;;;22.40;99.90;;;;;;5036616;28;20250;-73
2022/04/24 03:49:20;;;;;;;3.58;0.45;;;22.20;99.90;;;;;;5032023;28;20683;-73
2022/04/24 03:51:52;;;;;;;1.23;0.40;;;22.00;99.90;;;;;;5033144;28;20249;-73
2022/04/24 03:54:23;;;;;;;1.10;0.30;;;21.80;99.90;;;;;;5032651;28;20191;-74
2022/04/24 03:56:54;;;;;;;1.85;0.40;;;21.90;99.90;;;;;;5032914;28;20190;-74
2022/04/24 03:59:24;;;;;;;0.75;0.40;;;21.80;99.90;;;;;;5023394;28;20209;-74
2022/04/24 04:01:55;;;;;;;0.52;0.22;;;21.60;99.90;;;;;;5032430;28;20202;-74
2022/04/24 04:04:26;;;;;;;0.70;0.40;;;21.70;99.90;;;;;;5031999;28;20194;-74
2022/04/24 04:06:59;;;;;;;0.35;0.30;;;21.80;99.90;;;;;;5032704;28;20195;-74
2022/04/24 04:09:30;;;;;;;1.50;0.40;;;21.80;99.90;;;;;;5031972;28;20198;-75
2022/04/24 04:12:00;;;;;;;1.88;0.38;;;21.80;99.90;;;;;;5032039;28;20252;-74
2022/04/24 04:14:31;;;;;;;1.98;0.40;;;21.80;99.90;;;;;;5031632;28;20187;-73
2022/04/24 04:17:02;;;;;;;1.15;0.45;;;21.70;99.90;;;;;;5030172;28;20195;-76
2022/04/24 04:19:33;;;;;;;1.13;0.43;;;21.60;99.90;;;;;;5030813;28;20195;-75
2022/04/24 04:22:05;;;;;;;1.83;0.50;;;21.60;99.90;;;;;;5031886;28;20201;-74
2022/04/24 04:24:36;;;;;;;3.28;0.65;;;21.60;99.90;;;;;;5031951;28;20198;-75
2022/04/24 04:27:07;;;;;;;0.60;0.30;;;21.60;99.90;;;;;;5032414;28;20214;-73
2022/04/24 04:29:37;;;;;;;1.30;0.30;;;21.60;99.90;;;;;;5032277;28;20195;-73
2022/04/24 04:32:08;;;;;;;1.17;0.40;;;21.80;99.90;;;;;;5031066;28;20190;-75
2022/04/24 04:34:39;;;;;;;0.95;0.30;;;21.90;99.90;;;;;;5031294;28;20197;-75
2022/04/24 04:37:12;;;;;;;1.05;0.38;;;21.90;99.90;;;;;;5032549;28;20198;-74
2022/04/24 04:39:42;;;;;;;1.67;0.35;;;21.90;99.90;;;;;;5032088;28;20595;-73
2022/04/24 04:42:13;;;;;;;2.10;0.40;;;21.90;99.90;;;;;;5032495;28;20245;-75
2022/04/24 04:44:45;;;;;;;0.52;0.30;;;21.70;99.90;;;;;;5031455;28;20243;-75
2022/04/24 04:47:15;;;;;;;1.50;0.20;;;21.70;99.90;;;;;;5029478;28;20195;-73
2022/04/24 04:49:46;;;;;;;2.20;0.30;;;21.50;99.90;;;;;;5029925;28;20245;-74
2022/04/24 04:52:18;;;;;;;0.93;0.30;;;21.40;99.90;;;;;;5032232;28;20242;-74
2022/04/24 04:54:49;;;;;;;1.55;0.38;;;21.40;99.90;;;;;;5031920;28;20191;-74
2022/04/24 04:57:20;;;;;;;0.43;0.20;;;21.40;99.90;;;;;;5032473;28;20590;-74
2022/04/24 04:59:50;;;;;;;2.08;0.20;;;21.50;99.90;;;;;;5031821;28;20191;-75
2022/04/24 05:02:21;;;;;;;0.45;0.10;;;21.60;99.90;;;;;;5031865;28;20234;-74
2022/04/24 05:04:52;;;;;;;1.35;0.30;;;21.70;99.90;;;;;;5031775;28;20201;-74
2022/04/24 05:07:25;;;;;;;1.20;0.30;;;21.70;99.90;;;;;;5028576;28;20191;-74
2022/04/24 05:09:55;;;;;;;3.88;0.40;;;21.90;99.90;;;;;;5029996;28;20657;-74
2022/04/24 05:12:29;;;;;;;1.73;0.30;;;21.80;99.90;;;;;;5028754;28;20569;-74
2022/04/24 05:15:04;;;;;;;1.10;0.10;;;21.70;99.90;;;;;;5031931;28;20212;-73
2022/04/24 05:17:36;;;;;;;1.23;0.38;;;21.70;99.90;;;;;;5032231;28;20604;-74
2022/04/24 05:20:08;;;;;;;2.00;0.30;;;21.70;99.90;;;;;;5034331;28;20613;-75
2022/04/24 05:22:41;;;;;;;1.83;0.30;;;21.80;99.90;;;;;;5035926;28;20190;-73
2022/04/24 05:25:12;;;;;;;0.47;0.20;;;21.90;99.90;;;;;;5038509;28;20550;-74
2022/04/24 05:27:43;;;;;;;0.20;0.10;;;21.90;99.90;;;;;;5042047;28;20190;-74
2022/04/24 05:30:14;;;;;;;0.85;0.20;;;21.70;99.90;;;;;;5036010;28;20553;-73
2022/04/24 05:32:47;;;;;;;1.38;0.30;;;21.60;99.90;;;;;;5041465;28;20238;-73
2022/04/24 05:35:17;;;;;;;2.13;0.40;;;21.40;99.90;;;;;;5035981;28;20195;-72
2022/04/24 05:37:51;;;;;;;3.05;0.50;;;21.30;99.90;;;;;;5035674;28;20190;-75
2022/04/24 05:40:22;;;;;;;0.85;0.40;;;21.30;99.90;;;;;;5033613;28;20197;-75
2022/04/24 05:42:54;;;;;;;1.02;0.30;;;21.20;99.90;;;;;;5034808;28;20658;-73
2022/04/24 05:45:25;;;;;;;2.03;0.40;;;21.00;99.90;;;;;;5039443;28;20282;-74
2022/04/24 05:47:56;;;;;;;3.17;0.63;;;20.90;99.90;;;;;;5034285;28;20645;-74
2022/04/24 05:50:27;;;;;;;1.33;0.30;;;20.90;99.90;;;;;;5038521;28;20194;-75
2022/04/24 05:53:00;;;;;;;0.30;0.20;;;20.80;99.90;;;;;;5031249;28;20218;-74
2022/04/24 05:55:31;;;;;;;0.88;0.30;;;20.80;99.90;;;;;;5040033;28;20609;-75
2022/04/24 05:58:01;;;;;;;2.33;0.30;;;20.90;99.90;;;;;;5039400;28;20650;-74
2022/04/24 06:00:32;;;;;;;1.25;0.20;;;21.00;99.90;;;;;;5041918;28;20937;-75
2022/04/24 06:03:04;;;;;;;1.98;0.28;;;21.20;99.90;;;;;;5036860;28;20209;-73
2022/04/24 06:05:34;;;;;;;1.17;0.40;;;21.30;99.90;;;;;;5041065;28;20264;-74
2022/04/24 06:08:07;;;;;;;0.75;0.30;;;21.20;99.90;;;;;;5034074;28;20206;-74
2022/04/24 06:10:38;;;;;;;1.65;0.38;;;21.20;99.90;;;;;;5037791;28;20201;-74
2022/04/24 06:13:09;;;;;;;1.20;0.32;;;21.10;99.90;;;;;;5041482;28;20747;-74
2022/04/24 06:15:42;;;;;;;2.28;0.40;;;21.00;99.90;;;;;;5037040;28;20213;-74
2022/04/24 06:18:13;;;;;;;2.47;0.35;;;20.90;99.90;;;;;;5032734;28;20198;-73
2022/04/24 06:20:44;;;;;;;0.98;0.40;;;20.80;99.90;;;;;;5044833;28;20202;-75
2022/04/24 06:23:16;;;;;;;1.15;0.30;;;20.80;99.90;;;;;;5042060;28;20208;-72
2022/04/24 06:25:47;;;;;;;1.60;0.50;;;20.70;99.90;;;;;;5041432;28;20229;-74
2022/04/24 06:28:17;;;;;;;1.50;0.32;;;20.60;99.90;;;;;;5039397;28;20190;-72
2022/04/24 06:30:48;;;;;;;2.30;0.25;;;20.50;99.90;;;;;;5037511;28;20256;-73
2022/04/24 06:33:19;;;;;;;1.73;0.40;;;20.50;99.90;;;;;;5030369;28;20221;-74
2022/04/24 06:35:50;;;;;;;2.30;0.40;;;20.50;99.90;;;;;;5028936;28;20588;-74
2022/04/24 06:38:23;;;;;;;3.60;0.40;;;20.50;99.90;;;;;;5035836;28;20199;-73
2022/04/24 06:40:53;;;;;;;1.05;0.40;;;20.50;99.90;;;;;;5037047;28;20657;-73
2022/04/24 06:43:24;;;;;;;0.90;0.38;;;20.50;99.90;;;;;;5042921;28;20193;-73
2022/04/24 06:45:54;;;;;;;1.75;0.50;;;20.50;99.90;;;;;;5035579;28;20732;-73
2022/04/24 06:48:25;;;;;;;1.92;0.40;;;20.50;99.90;;;;;;5041568;28;20192;-73
2022/04/24 06:50:56;;;;;;;1.52;0.50;;;20.50;99.90;;;;;;5039109;28;20284;-75
2022/04/24 06:53:29;;;;;;;1.00;0.40;;;20.50;99.90;;;;;;5036322;28;20213;-73
2022/04/24 06:55:59;;;;;;;0.98;0.43;;;20.50;99.90;;;;;;5034969;28;20209;-73
2022/04/24 06:58:30;;;;;;;3.28;0.60;;;20.50;99.90;;;;;;5030940;28;20693;-74
2022/04/24 07:01:01;;;;;;;2.08;0.50;;;20.40;99.90;;;;;;5031104;28;20203;-73
2022/04/24 07:03:33;;;;;;;4.82;0.75;;;20.30;99.90;;;;;;5028635;28;20197;-74
2022/04/24 07:06:04;;;;;;;2.08;0.60;;;20.20;99.90;;;;;;5022840;28;20205;-73
2022/04/24 07:08:37;;;;;;;1.10;0.60;;;20.10;99.90;;;;;;5029982;28;20693;-74
2022/04/24 07:11:09;;;;;;;3.22;0.60;;;20.00;99.90;;;;;;5032819;28;20245;-74
2022/04/24 07:13:41;;;;;;;4.07;0.80;;;19.90;99.90;;;;;;5030384;28;20224;-73
2022/04/24 07:16:11;;;;;;;3.42;0.70;;;19.80;99.90;;;;;;5023284;28;20205;-74
2022/04/24 07:18:42;;;;;;;2.33;0.80;;;19.70;99.90;;;;;;5028988;28;20209;-74
2022/04/24 07:21:12;;;;;;;2.55;0.80;;;19.70;99.90;;;;;;5033023;28;20214;-73
2022/04/24 07:23:45;;;;;;;1.42;0.80;;;19.60;99.90;;;;;;5027497;28;20198;-74
2022/04/24 07:26:16;;;;;;;2.40;0.75;;;19.50;99.90;;;;;;5035008;28;20218;-74
2022/04/24 07:28:46;;;;;;;3.47;0.80;;;19.50;99.90;;;;;;5033619;28;20197;-74
2022/04/24 07:31:19;;;;;;;1.85;0.85;;;19.50;99.90;;;;;;5033676;28;20805;-74
2022/04/24 07:33:50;;;;;;;3.30;1.00;;;19.50;99.90;;;;;;5038821;28;20218;-74
2022/04/24 07:36:20;;;;;;;2.60;0.90;;;19.50;99.90;;;;;;5034212;28;20202;-75
2022/04/24 07:38:53;;;;;;;2.78;0.77;;;19.50;99.90;;;;;;5028227;28;20208;-74
2022/04/24 07:41:23;;;;;;;2.55;0.60;;;19.50;99.90;;;;;;5023708;28;20203;-74
2022/04/24 07:43:54;;;;;;;3.33;1.00;;;19.40;99.90;;;;;;5043250;28;20201;-74
2022/04/24 07:46:25;;;;;;;3.30;0.90;;;19.40;99.90;;;;;;5040712;28;20334;-75
2022/04/24 07:48:56;;;;;;;4.72;1.45;;;19.40;99.90;;;;;;5025296;28;20202;-74
2022/04/24 07:51:26;;;;;;;3.83;0.80;;;19.50;99.90;;;;;;5029300;28;20244;-75
2022/04/24 07:53:59;;;;;;;2.42;0.60;;;19.50;99.90;;;;;;5034885;28;20230;-74
2022/04/24 07:56:30;;;;;;;1.58;0.70;;;19.50;99.90;;;;;;5037563;28;20212;-73
2022/04/24 07:59:00;;;;;;;3.20;0.70;;;19.50;99.90;;;;;;5039909;28;20201;-74
2022/04/24 08:01:31;;;;;;;1.13;0.70;;;19.40;99.90;;;;;;5033975;28;20197;-74
2022/04/24 08:04:01;;;;;;;2.92;0.70;;;19.40;99.90;;;;;;5043059;28;20202;-73
2022/04/24 08:06:32;;;;;;;1.77;0.60;;;19.30;99.90;;;;;;5040913;28;20202;-75
2022/04/24 08:09:04;;;;;;;1.98;0.80;;;19.30;99.90;;;;;;5030752;28;20198;-75
2022/04/24 08:11:35;;;;;;;2.72;0.85;;;19.30;99.90;;;;;;5038513;28;20243;-73
2022/04/24 08:14:06;;;;;;;1.42;0.55;;;19.30;99.90;;;;;;5032335;28;20214;-73
2022/04/24 08:16:37;;;;;;;2.13;0.70;;;19.20;99.90;;;;;;5029217;28;20190;-74
2022/04/24 08:19:07;;;;;;;1.25;0.80;;;19.20;99.90;;;;;;5035467;28;20264;-74
2022/04/24 08:21:38;;;;;;;1.10;0.65;;;19.20;99.90;;;;;;5036132;28;20189;-74
2022/04/24 08:24:10;;;;;;;3.05;0.80;;;19.20;99.90;;;;;;5036917;28;20227;-74
2022/04/24 08:26:41;;;;;;;1.17;0.70;;;19.20;99.90;;;;;;5035710;28;20232;-74
2022/04/24 08:29:12;;;;;;;2.33;0.80;;;19.20;99.90;;;;;;5042589;28;20235;-73
2022/04/24 08:31:42;;;;;;;2.85;0.82;;;19.20;99.90;;;;;;5037382;28;20660;-74
2022/04/24 08:34:13;;;;;;;1.35;0.60;;;19.20;99.90;;;;;;5042668;28;20259;-74
2022/04/24 08:36:44;;;;;;;1.35;0.57;;;19.20;99.90;;;;;;5036490;28;20251;-74
2022/04/24 08:39:17;;;;;;;1.63;0.50;;;19.20;99.90;;;;;;5035792;28;20201;-73
2022/04/24 08:41:47;;;;;;;0.85;0.47;;;19.20;99.90;;;;;;5038344;28;20205;-74
2022/04/24 08:44:18;;;;;;;1.65;0.60;;;19.20;99.90;;;;;;5032407;28;20609;-74
2022/04/24 08:46:49;;;;;;;1.65;0.77;;;19.10;99.90;;;;;;5030930;28;20311;-74
2022/04/24 08:49:20;;;;;;;1.23;0.60;;;19.10;99.90;;;;;;5041088;28;20186;-74
2022/04/24 08:51:51;;;;;;;1.80;0.68;;;19.10;99.90;;;;;;5028691;28;20226;-74
2022/04/24 08:54:26;;;;;;;1.67;0.73;;;19.00;99.90;;;;;;5044995;28;20591;-74
2022/04/24 08:56:58;;;;;;;1.73;0.70;;;18.90;99.90;;;;;;5038895;28;20194;-73
2022/04/24 08:59:29;;;;;;;1.83;0.70;;;18.80;99.90;;;;;;5047486;28;20197;-76
2022/04/24 09:02:02;;;;;;;2.83;0.60;;;18.70;99.90;;;;;;5036881;28;20658;-74
2022/04/24 09:04:35;;;;;;;0.80;0.80;;;18.60;99.90;;;;;;5043407;28;20202;-75
2022/04/24 09:07:07;;;;;;;2.75;1.10;;;18.60;99.90;;;;;;5036376;28;20189;-74
2022/04/24 09:09:45;;;;;;;2.28;0.85;;;18.60;99.90;;;;;;5035254;28;20234;-73
2022/04/24 09:12:18;;;;;;;2.13;0.73;;;18.50;99.90;;;;;;5043527;28;20217;-74
2022/04/24 09:14:52;;;;;;;2.58;0.70;;;18.50;99.90;;;;;;5039138;28;20583;-75
2022/04/24 09:17:23;;;;;;;0.60;0.50;;;18.50;99.90;;;;;;5039235;28;20190;-74
2022/04/24 09:19:54;;;;;;;0.93;0.50;;;18.30;99.90;;;;;;5036934;28;20205;-74
2022/04/24 09:22:26;;;;;;;210.60;91.47;;;18.30;99.90;;;;;;5034819;28;20198;-73
2022/04/24 09:24:59;;;;;;;356.63;186.15;;;18.30;99.90;;;;;;5035911;28;20722;-80
2022/04/24 09:27:32;;;;;;;62.00;37.95;;;18.30;99.90;;;;;;5039732;28;20190;-75
2022/04/24 09:30:04;;;;;;;22.48;12.68;;;18.30;99.90;;;;;;5038812;28;20213;-74
2022/04/24 09:32:40;;;;;;;11.48;7.47;;;18.30;99.90;;;;;;5040892;28;20634;-74
2022/04/24 09:35:10;;;;;;;7.80;5.00;;;18.30;99.90;;;;;;5038995;28;20685;-74
2022/04/24 09:37:42;;;;;;;4.75;3.30;;;18.20;99.90;;;;;;5037957;28;20285;-74
2022/04/24 09:40:15;;;;;;;5.50;2.13;;;18.10;99.90;;;;;;5044461;28;20723;-73
2022/04/24 09:42:56;;;;;;;7.22;3.17;;;18.10;99.90;;;;;;5042588;28;20633;-73
2022/04/24 09:45:29;;;;;;;5.07;2.63;;;18.00;99.90;;;;;;5042257;28;20209;-74
2022/04/24 09:48:03;;;;;;;4.25;2.90;;;18.00;99.90;;;;;;5038922;28;20194;-73
2022/04/24 09:50:35;;;;;;;2.75;1.50;;;18.00;99.90;;;;;;5042886;28;20681;-74
2022/04/24 09:53:07;;;;;;;2.53;1.52;;;18.00;99.90;;;;;;5028720;28;20253;-75
2022/04/24 09:55:41;;;;;;;3.55;1.85;;;18.00;99.90;;;;;;5031809;28;20561;-75
2022/04/24 09:58:12;;;;;;;4.05;1.73;;;18.00;99.90;;;;;;5042574;28;20189;-75
2022/04/24 10:00:44;;;;;;;3.03;1.30;;;18.00;99.90;;;;;;5044385;28;20223;-74
2022/04/24 10:03:17;;;;;;;1.58;1.17;;;18.00;99.90;;;;;;5043989;28;20194;-75
2022/04/24 10:05:48;;;;;;;1.95;1.20;;;18.00;99.90;;;;;;5037245;28;20253;-74
2022/04/24 10:08:21;;;;;;;4.38;1.17;;;18.00;99.90;;;;;;5040935;28;20214;-73
2022/04/24 10:10:54;;;;;;;2.00;0.90;;;18.00;99.90;;;;;;5028860;28;20194;-74
2022/04/24 10:13:26;;;;;;;1.30;0.98;;;18.00;99.90;;;;;;5038366;28;20244;-74
2022/04/24 10:16:05;;;;;;;1.85;0.98;;;17.90;99.90;;;;;;5042720;28;20210;-74
2022/04/24 10:18:44;;;;;;;1.67;0.85;;;17.90;99.90;;;;;;5040597;28;20186;-74
2022/04/24 10:21:32;;;;;;;2.25;0.90;;;18.00;99.90;;;;;;5037997;28;20207;-74
2022/04/24 10:24:11;;;;;;;2.63;1.15;;;17.90;99.90;;;;;;5033569;28;20210;-74
2022/04/24 10:26:55;;;;;;;3.72;1.50;;;18.00;99.90;;;;;;5036542;28;20229;-73
2022/04/24 10:29:26;;;;;;;3.63;1.48;;;17.90;99.90;;;;;;5040148;28;20193;-73
2022/04/24 10:31:56;;;;;;;2.38;1.38;;;17.90;99.90;;;;;;5036349;28;20217;-73
2022/04/24 10:34:27;;;;;;;3.28;1.50;;;17.90;99.90;;;;;;5042576;28;20681;-73
2022/04/24 10:37:00;;;;;;;3.58;2.17;;;17.90;99.90;;;;;;5037893;28;20661;-73
2022/04/24 10:39:33;;;;;;;3.05;1.75;;;17.90;99.90;;;;;;5044768;28;20194;-73
2022/04/24 10:42:13;;;;;;;2.42;1.65;;;17.90;99.90;;;;;;5037696;28;20682;-73
2022/04/24 10:44:54;;;;;;;3.85;1.60;;;17.90;99.90;;;;;;5035832;28;20280;-73
2022/04/24 10:47:25;;;;;;;2.90;1.20;;;17.90;99.90;;;;;;5043063;28;20186;-73
2022/04/24 10:50:08;;;;;;;0.75;0.70;;;17.90;99.90;;;;;;5037681;28;20206;-73
2022/04/24 10:52:42;;;;;;;1.63;1.00;;;17.80;99.90;;;;;;5044293;28;20186;-73
2022/04/24 10:55:14;;;;;;;1.73;1.00;;;17.80;99.90;;;;;;5038657;28;20254;-75
2022/04/24 10:57:48;;;;;;;3.33;0.95;;;17.80;99.90;;;;;;5040171;28;20247;-73
2022/04/24 11:00:22;;;;;;;1.63;0.90;;;17.80;99.90;;;;;;5041819;28;20557;-74
2022/04/24 11:02:54;;;;;;;1.75;0.90;;;17.80;99.90;;;;;;5041552;28;20650;-73
2022/04/24 11:05:26;;;;;;;1.30;0.65;;;17.70;99.90;;;;;;5047049;28;20201;-72
2022/04/24 11:08:05;;;;;;;1.85;0.82;;;17.70;99.90;;;;;;5041379;28;20269;-73
2022/04/24 11:10:42;;;;;;;1.50;0.88;;;17.60;99.90;;;;;;5043552;28;20194;-74
2022/04/24 11:13:16;;;;;;;1.80;0.80;;;17.60;99.90;;;;;;5033540;28;20293;-74
2022/04/24 11:15:49;;;;;;;1.50;0.80;;;17.60;99.90;;;;;;5033876;28;20616;-73
2022/04/24 11:18:27;;;;;;;0.73;0.65;;;17.60;99.90;;;;;;5036340;28;20193;-73
2022/04/24 11:21:03;;;;;;;1.05;0.73;;;17.60;99.90;;;;;;5034774;28;20182;-74
2022/04/24 11:23:35;;;;;;;2.30;0.80;;;17.60;99.90;;;;;;5037923;28;20200;-73
2022/04/24 11:26:09;;;;;;;1.52;0.98;;;17.60;99.90;;;;;;5036898;28;20226;-74
2022/04/24 11:28:43;;;;;;;2.05;0.80;;;17.60;99.90;;;;;;5039159;28;20554;-74
2022/04/24 11:31:16;;;;;;;2.17;0.70;;;17.60;99.90;;;;;;5040524;28;21482;-73
2022/04/24 11:33:58;;;;;;;1.88;0.70;;;17.60;99.90;;;;;;5031236;28;20253;-74
2022/04/24 11:36:32;;;;;;;4.22;0.90;;;17.60;99.90;;;;;;5028360;28;20657;-73
2022/04/24 11:39:05;;;;;;;1.90;0.70;;;17.60;99.90;;;;;;5038096;28;20197;-74
2022/04/24 11:41:36;;;;;;;0.90;0.80;;;17.60;99.90;;;;;;5033386;28;20228;-74
2022/04/24 11:50:13;;;;;;;2.08;1.00;;;17.60;99.90;;;;;;5032065;28;20195;-73
2022/04/24 11:52:52;;;;;;;3.05;0.90;;;17.60;99.90;;;;;;4953546;28;20201;-73
2022/04/24 11:56:00;;;;;;;0.80;0.80;;;17.50;99.90;;;;;;5020730;28;20229;-74
2022/04/24 11:58:16;;;;;;;1.40;0.82;;;17.60;99.90;;;;;;5031997;28;20198;-73
2022/04/24 12:00:48;;;;;;;1.48;0.80;;;17.60;99.90;;;;;;5032895;28;20248;-74
2022/04/24 12:03:19;;;;;;;1.38;0.70;;;17.60;99.90;;;;;;5031794;28;20206;-74
2022/04/24 12:06:01;;;;;;;1.05;0.63;;;17.60;99.90;;;;;;5031908;28;20202;-74
2022/04/24 12:08:42;;;;;;;1.27;0.60;;;17.60;99.90;;;;;;5035151;28;20194;-74
2022/04/24 12:11:24;;;;;;;1.65;1.33;;;17.60;99.90;;;;;;5031616;28;20297;-73
2022/04/24 12:14:05;;;;;;;1.17;0.82;;;17.60;99.90;;;;;;5035060;28;20630;-75
2022/04/24 12:16:39;;;;;;;0.80;0.70;;;17.60;99.90;;;;;;5025120;28;20705;-74
2022/04/24 12:19:12;;;;;;;1.30;0.60;;;17.50;99.90;;;;;;5021175;28;20256;-74
2022/04/24 12:21:49;;;;;;;1.85;0.80;;;17.50;99.90;;;;;;5032208;28;20236;-74
2022/04/24 12:24:20;;;;;;;2.30;0.80;;;17.50;99.90;;;;;;5037531;28;20202;-75
2022/04/24 12:26:52;;;;;;;2.13;0.90;;;17.50;99.90;;;;;;5037137;28;20230;-75
2022/04/24 12:29:22;;;;;;;2.25;0.90;;;17.50;99.90;;;;;;5037151;28;20204;-75
2022/04/24 12:32:06;;;;;;;1.65;1.15;;;17.50;99.90;;;;;;5037094;28;20194;-75
2022/04/24 12:34:40;;;;;;;3.25;1.02;;;17.50;99.90;;;;;;5036742;28;20244;-75
2022/04/24 12:37:12;;;;;;;4.55;1.33;;;17.50;99.90;;;;;;5036955;28;20228;-75
2022/04/24 12:39:43;;;;;;;2.08;1.10;;;17.50;99.90;;;;;;5055564;28;20201;-75
2022/04/24 12:42:19;;;;;;;2.03;1.08;;;17.40;99.90;;;;;;5054552;28;20198;-75
2022/04/24 12:44:50;;;;;;;1.63;1.10;;;17.40;99.90;;;;;;5042363;28;20206;-75
2022/04/24 12:47:23;;;;;;;1.90;1.30;;;17.50;99.90;;;;;;5036964;28;20190;-74
2022/04/24 12:49:54;;;;;;;3.20;1.50;;;17.40;99.90;;;;;;5036902;28;20561;-73
2022/04/24 12:52:25;;;;;;;2.40;1.35;;;17.30;99.90;;;;;;5036738;28;20716;-74
2022/04/24 12:54:56;;;;;;;3.17;1.35;;;17.20;99.90;;;;;;5038596;28;20213;-75
2022/04/24 12:57:26;;;;;;;1.88;1.30;;;17.20;99.90;;;;;;5054144;28;20236;-75
2022/04/24 12:59:57;;;;;;;2.67;1.30;;;17.20;99.90;;;;;;5036152;28;20186;-74
2022/04/24 13:02:30;;;;;;;1.50;1.20;;;17.10;99.90;;;;;;5036151;28;20273;-74
2022/04/24 13:05:01;;;;;;;3.47;1.48;;;17.10;99.90;;;;;;5035988;28;20190;-74
2022/04/24 13:07:31;;;;;;;1.73;1.30;;;17.10;99.90;;;;;;5036385;28;20201;-75
2022/04/24 13:10:02;;;;;;;2.17;1.65;;;17.00;99.90;;;;;;5036129;28;20598;-75
2022/04/24 13:12:34;;;;;;;1.85;1.23;;;17.00;99.90;;;;;;5035996;28;20202;-74
2022/04/24 13:15:05;;;;;;;1.48;1.38;;;16.90;99.90;;;;;;5041804;28;20222;-75